createdAt,value
2023-02-17T00:01:20.537Z,102308.25
2023-02-17T00:06:25.289Z,102308.59
2023-02-17T00:11:28.886Z,102276.50
2023-02-17T00:16:31.741Z,102312.69
2023-02-17T00:21:34.450Z,102306.19
2023-02-17T00:26:37.166Z,102305.53
2023-02-17T00:31:40.419Z,102311.09
2023-02-17T00:36:43.168Z,102312.47
2023-02-17T00:41:45.925Z,102323.00
2023-02-17T00:46:48.925Z,102305.59
2023-02-17T00:51:52.000Z,102313.19
2023-02-17T00:56:54.862Z,102316.97
2023-02-17T01:01:59.140Z,102319.41
2023-02-17T01:07:01.942Z,102323.00
2023-02-17T01:12:04.673Z,102319.41
2023-02-17T01:17:07.721Z,102328.13
2023-02-17T01:22:10.715Z,102334.25
2023-02-17T01:27:13.376Z,102330.31
2023-02-17T01:32:16.077Z,102341.25
2023-02-17T01:37:18.730Z,102299.50
2023-02-17T01:42:21.589Z,102344.84
2023-02-17T01:47:24.514Z,102337.06
2023-02-17T01:52:27.448Z,102335.69
2023-02-17T01:57:33.430Z,102340.34
2023-02-17T02:02:36.546Z,102356.84
2023-02-17T02:07:41.453Z,102355.94
2023-02-17T02:12:44.814Z,102361.28
2023-02-17T02:17:56.438Z,102358.81
2023-02-17T02:23:46.801Z,102352.34
2023-02-17T02:29:10.698Z,102353.59
2023-02-17T02:34:21.797Z,102337.56
2023-02-17T02:39:27.558Z,102356.06
2023-02-17T02:44:30.606Z,102353.78
2023-02-17T02:49:36.123Z,102351.72
2023-02-17T02:55:02.182Z,102361.81
2023-02-17T03:00:57.058Z,102353.47
2023-02-17T03:06:31.968Z,102346.69
2023-02-17T03:11:35.132Z,102347.91
2023-02-17T03:16:40.629Z,102349.34
2023-02-17T03:21:46.278Z,102327.97
2023-02-17T03:26:49.011Z,102344.47
2023-02-17T03:31:52.733Z,102332.94
2023-02-17T03:36:55.618Z,102338.09
2023-02-17T03:41:58.254Z,102326.75
2023-02-17T03:47:00.949Z,102333.22
2023-02-17T03:52:03.702Z,102313.16
2023-02-17T03:57:06.488Z,102330.47
2023-02-17T04:02:09.199Z,102322.03
2023-02-17T04:07:11.913Z,102325.19
2023-02-17T04:12:14.566Z,102326.09
2023-02-17T04:17:17.351Z,102328.78
2023-02-17T04:22:19.972Z,102292.06
2023-02-17T04:27:22.725Z,102301.66
2023-02-17T04:32:25.684Z,102299.22
2023-02-17T04:37:28.317Z,102303.63
2023-02-17T04:42:30.988Z,102298.72
2023-02-17T04:47:33.918Z,102299.28
2023-02-17T04:52:36.679Z,102304.41
2023-02-17T04:57:39.735Z,102314.59
2023-02-17T05:02:42.392Z,102319.81
2023-02-17T05:07:48.930Z,102297.00
2023-02-17T05:12:51.730Z,102298.84
2023-02-17T05:17:54.469Z,102311.09
2023-02-17T05:22:57.340Z,102313.53
2023-02-17T05:28:00.140Z,102315.81
2023-02-17T05:33:02.849Z,102310.94
2023-02-17T05:38:05.619Z,102305.38
2023-02-17T05:43:08.255Z,102296.53
2023-02-17T05:48:10.951Z,102292.78
2023-02-17T05:53:13.794Z,102306.44
2023-02-17T05:58:16.613Z,102303.28
2023-02-17T06:03:19.408Z,102296.63
2023-02-17T06:08:22.152Z,102302.59
2023-02-17T06:13:25.059Z,102289.03
2023-02-17T06:18:27.858Z,102287.88
2023-02-17T06:23:30.607Z,102291.50
2023-02-17T06:28:35.079Z,102286.78
2023-02-17T06:33:37.918Z,102278.25
2023-02-17T06:38:40.668Z,102270.50
2023-02-17T06:43:43.339Z,102265.88
2023-02-17T06:48:46.083Z,102250.59
2023-02-17T06:53:48.954Z,102251.69
2023-02-17T06:58:51.878Z,102240.19
2023-02-17T07:03:55.297Z,102242.16
2023-02-17T07:08:58.118Z,102248.41
2023-02-17T07:14:01.083Z,102232.19
2023-02-17T07:19:03.806Z,102244.38
2023-02-17T07:24:06.640Z,102255.34
2023-02-17T07:29:09.460Z,102259.44
2023-02-17T07:34:12.063Z,102242.72
2023-02-17T07:39:14.937Z,102245.97
2023-02-17T07:44:17.594Z,102251.31
2023-02-17T07:49:20.466Z,102245.41
2023-02-17T07:54:23.309Z,102249.69
2023-02-17T07:59:26.033Z,102240.72
2023-02-17T08:04:28.806Z,102243.06
2023-02-17T08:09:50.424Z,102243.31
2023-02-17T08:14:53.374Z,102240.66
2023-02-17T08:19:56.538Z,102245.19
2023-02-17T08:24:59.326Z,102239.34
2023-02-17T08:30:02.160Z,102240.66
2023-02-17T08:35:07.071Z,102230.75
2023-02-17T08:40:10.227Z,102234.53
2023-02-17T08:45:14.872Z,102232.28
2023-02-17T08:50:20.332Z,102212.56
2023-02-17T08:55:23.971Z,102222.56
2023-02-17T09:00:27.115Z,102216.16
2023-02-17T09:05:29.883Z,102227.94
2023-02-17T09:10:32.887Z,102206.47
2023-02-17T09:15:37.144Z,102220.13
2023-02-17T09:20:39.996Z,102214.81
2023-02-17T09:25:42.903Z,102222.47
2023-02-17T09:30:45.901Z,102215.69
2023-02-17T09:35:49.712Z,102229.16
2023-02-17T09:40:52.489Z,102235.16
2023-02-17T09:46:00.709Z,102237.44
2023-02-17T09:51:08.080Z,102234.88
2023-02-17T09:56:15.257Z,102239.50
2023-02-17T10:01:24.710Z,102247.63
2023-02-17T10:06:29.168Z,102243.06
2023-02-17T10:11:47.054Z,102246.13
2023-02-17T10:16:53.857Z,102249.19
2023-02-17T10:22:03.523Z,102250.22
2023-02-17T10:27:38.428Z,102236.88
2023-02-17T10:33:04.960Z,102241.13
2023-02-17T10:38:27.966Z,102207.38
2023-02-17T10:43:32.535Z,102245.78
2023-02-17T10:48:39.186Z,102241.19
2023-02-17T10:53:42.449Z,102233.56
2023-02-17T10:58:56.394Z,102242.53
2023-02-17T11:04:02.606Z,102234.25
2023-02-17T11:09:12.432Z,102239.41
2023-02-17T11:14:21.428Z,102235.59
2023-02-17T11:19:28.861Z,102241.81
2023-02-17T11:24:33.865Z,102248.16
2023-02-17T11:29:36.832Z,102243.50
2023-02-17T11:34:42.839Z,102241.44
2023-02-17T11:39:51.171Z,102252.03
2023-02-17T11:44:57.197Z,102235.38
2023-02-17T11:50:06.642Z,102235.38
2023-02-17T11:55:17.840Z,102240.34
2023-02-17T12:00:23.660Z,102239.31
2023-02-17T12:06:00.493Z,102234.75
2023-02-17T12:11:37.903Z,102242.88
2023-02-17T12:16:52.597Z,102217.53
2023-02-17T12:22:23.259Z,102245.78
2023-02-17T12:27:37.914Z,102253.91
2023-02-17T12:32:58.966Z,102253.69
2023-02-17T12:38:08.400Z,102250.16
2023-02-17T12:43:33.475Z,102256.78
2023-02-17T12:48:40.632Z,102263.47
2023-02-17T12:53:54.845Z,102276.66
2023-02-17T12:58:59.653Z,102272.56
2023-02-17T13:04:03.120Z,102274.75
2023-02-17T13:09:13.608Z,102270.34
2023-02-17T13:14:42.662Z,102280.50
2023-02-17T13:19:45.343Z,102279.78
2023-02-17T13:24:55.630Z,102283.53
2023-02-17T13:30:05.856Z,102267.25
2023-02-17T13:35:14.428Z,102271.50
2023-02-17T13:40:17.105Z,102269.00
2023-02-17T13:45:40.891Z,102263.16
2023-02-17T13:50:54.819Z,102244.81
2023-02-17T13:56:01.179Z,102256.22
2023-02-17T14:01:05.454Z,102251.44
2023-02-17T14:06:10.116Z,102252.97
2023-02-17T14:11:14.312Z,102261.09
2023-02-17T14:16:46.626Z,102260.41
2023-02-17T14:22:05.930Z,102263.22
2023-02-17T14:27:10.123Z,102271.84
2023-02-17T14:32:31.536Z,102269.19
2023-02-17T14:37:37.179Z,102262.16
2023-02-17T14:42:40.001Z,102265.38
2023-02-17T14:47:43.491Z,102269.09
2023-02-17T14:52:48.232Z,102274.00
2023-02-17T14:57:53.859Z,102268.84
2023-02-17T15:02:56.874Z,102261.84
2023-02-17T15:08:01.732Z,102273.75
2023-02-17T15:13:04.480Z,102271.31
2023-02-17T15:18:07.258Z,102274.97
2023-02-17T15:23:18.948Z,102276.78
2023-02-17T15:28:22.649Z,102283.63
2023-02-17T15:33:25.596Z,102286.41
2023-02-17T15:38:28.351Z,102272.41
2023-02-17T15:48:43.918Z,102283.25
2023-02-17T15:53:48.020Z,102291.88
2023-02-17T15:58:51.193Z,102296.03
2023-02-17T16:03:54.315Z,102300.38
2023-02-17T16:08:59.128Z,102292.03
2023-02-17T16:14:02.198Z,102303.09
2023-02-17T16:19:04.921Z,102309.59
2023-02-17T16:24:07.813Z,102268.69
2023-02-17T16:29:21.665Z,102319.06
2023-02-17T16:34:26.101Z,102299.69
2023-02-17T16:39:29.366Z,102304.53
2023-02-17T16:44:32.187Z,102311.81
2023-02-17T16:49:38.057Z,102311.91
2023-02-17T16:54:40.724Z,102306.44
2023-02-17T16:59:43.390Z,102304.84
2023-02-17T17:04:46.261Z,102300.28
2023-02-17T17:10:12.505Z,102291.41
2023-02-17T17:15:11.938Z,102270.06
2023-02-17T17:20:17.640Z,102290.72
2023-02-17T17:25:20.390Z,102294.44
2023-02-17T17:30:26.720Z,102286.28
2023-02-17T17:35:30.193Z,102255.75
2023-02-17T17:40:48.848Z,102278.88
2023-02-17T17:45:52.422Z,102285.00
2023-02-17T17:50:55.237Z,102291.78
2023-02-17T17:55:57.993Z,102294.34
2023-02-17T18:01:01.771Z,102288.13
2023-02-17T18:06:05.750Z,102269.88
2023-02-17T18:11:09.050Z,102289.19
2023-02-17T18:16:11.854Z,102287.03
2023-02-17T18:21:14.596Z,102283.50
2023-02-17T18:26:18.882Z,102275.69
2023-02-17T18:31:21.899Z,102280.38
2023-02-17T18:36:27.083Z,102275.47
2023-02-17T18:41:31.456Z,102278.59
2023-02-17T18:46:34.358Z,102267.66
2023-02-17T18:51:37.572Z,102275.50
2023-02-17T18:56:40.344Z,102282.22
2023-02-17T19:01:43.640Z,102269.25
2023-02-17T19:06:46.439Z,102274.84
2023-02-17T19:11:49.114Z,102278.66
2023-02-17T19:16:51.780Z,102284.91
2023-02-17T19:21:54.898Z,102277.09
2023-02-17T19:26:57.582Z,102256.28
2023-02-17T19:32:01.305Z,102273.97
2023-02-17T19:37:04.281Z,102260.34
2023-02-17T19:42:08.426Z,102267.47
2023-02-17T19:47:11.118Z,102270.16
2023-02-17T19:52:13.835Z,102257.81
2023-02-17T19:57:19.592Z,102275.94
2023-02-17T20:02:22.278Z,102273.47
2023-02-17T20:07:25.250Z,102269.47
2023-02-17T20:12:27.970Z,102265.41
2023-02-17T20:17:30.652Z,102264.94
2023-02-17T20:22:33.371Z,102254.88
2023-02-17T20:27:36.101Z,102249.03
2023-02-17T20:32:38.841Z,102257.72
2023-02-17T20:37:41.679Z,102236.00
2023-02-17T20:42:44.316Z,102250.28
2023-02-17T20:47:47.098Z,102248.69
2023-02-17T20:52:50.045Z,102254.91
2023-02-17T20:57:53.075Z,102258.91
2023-02-17T21:02:55.816Z,102260.97
2023-02-17T21:07:59.314Z,102262.34
2023-02-17T21:13:02.222Z,102255.13
2023-02-17T21:18:06.082Z,102253.50
2023-02-17T21:23:08.742Z,102248.53
2023-02-17T21:28:11.388Z,102219.41
2023-02-17T21:33:14.083Z,102242.91
2023-02-17T21:38:17.218Z,102224.44
2023-02-17T21:43:38.671Z,102243.25
2023-02-17T21:48:41.405Z,102253.97
2023-02-17T21:53:44.542Z,102237.56
2023-02-17T21:58:52.656Z,102249.38
2023-02-17T22:03:56.010Z,102254.88
2023-02-17T22:08:58.816Z,102245.22
2023-02-17T22:14:04.074Z,102252.31
2023-02-17T22:19:08.555Z,102260.31
2023-02-17T22:24:11.458Z,102257.31
2023-02-17T22:29:14.098Z,102246.34
2023-02-17T22:34:16.933Z,102237.56
2023-02-17T22:39:19.688Z,102243.13
2023-02-17T22:44:22.770Z,102251.97
2023-02-17T22:49:25.424Z,102246.88
2023-02-17T22:54:28.122Z,102253.81
2023-02-17T22:59:31.087Z,102251.13
2023-02-17T23:04:33.831Z,102240.00
2023-02-17T23:09:36.742Z,102246.22
2023-02-17T23:14:40.786Z,102249.09
2023-02-17T23:19:43.589Z,102231.00
2023-02-17T23:24:47.785Z,102240.78
2023-02-17T23:29:50.492Z,102243.66
2023-02-17T23:34:53.156Z,102237.38
2023-02-17T23:39:55.888Z,102213.00
2023-02-17T23:44:58.578Z,102249.69
2023-02-17T23:50:01.578Z,102243.41
2023-02-17T23:55:06.447Z,102240.31
